createdAt,value
2018-12-01T00:00:33.484Z,11.24
2018-12-01T00:06:28.470Z,11.99
2018-12-01T00:12:23.491Z,11.77
2018-12-01T00:18:18.488Z,9.03
2018-12-01T00:24:13.526Z,8.2
2018-12-01T00:30:08.493Z,7.43
2018-12-01T00:36:03.506Z,8.03
2018-12-01T00:41:58.518Z,11.26
2018-12-01T00:47:53.517Z,10.13
2018-12-01T00:53:48.527Z,9.01
2018-12-01T00:59:43.542Z,12.46
2018-12-01T01:05:38.524Z,16.45
2018-12-01T01:11:33.507Z,19.32
2018-12-01T01:17:28.550Z,20.33
2018-12-01T01:23:23.534Z,18.9
2018-12-01T01:29:18.536Z,17.8
2018-12-01T01:35:13.518Z,18.85
2018-12-01T01:41:08.569Z,18.21
2018-12-01T01:47:03.549Z,17.43
2018-12-01T01:52:58.575Z,14.97
2018-12-01T01:58:53.554Z,13.83
2018-12-01T02:04:48.569Z,13.15
2018-12-01T02:10:43.568Z,12.38
2018-12-01T02:16:38.552Z,10.99
2018-12-01T02:22:33.586Z,13.64
2018-12-01T02:28:28.614Z,12.45
2018-12-01T02:34:23.564Z,10.94
2018-12-01T02:40:18.586Z,10.42
2018-12-01T02:46:13.585Z,11.49
2018-12-01T02:52:08.572Z,12.24
2018-12-01T02:58:03.587Z,15.2
2018-12-01T03:03:58.586Z,16.88
2018-12-01T03:09:53.609Z,18.51
2018-12-01T03:15:48.574Z,18.35
2018-12-01T03:21:43.647Z,18.66
2018-12-01T03:27:38.612Z,19.83
2018-12-01T03:33:33.609Z,19.43
2018-12-01T03:39:28.590Z,19.57
2018-12-01T03:45:23.601Z,18.4
2018-12-01T03:51:18.633Z,18.73
2018-12-01T03:57:13.650Z,17.95
2018-12-01T04:03:08.643Z,19.39
2018-12-01T04:09:03.646Z,17.44
2018-12-01T04:14:58.654Z,16.27
2018-12-01T04:20:53.620Z,14.97
2018-12-01T04:26:48.651Z,14.54
2018-12-01T04:32:43.653Z,16.17
2018-12-01T04:38:38.679Z,16.86
2018-12-01T04:44:33.644Z,16.94
2018-12-01T04:50:28.633Z,16.02
2018-12-01T04:56:23.696Z,16.8
2018-12-01T05:02:18.687Z,16.27
2018-12-01T05:08:13.733Z,15.72
2018-12-01T05:14:08.696Z,15.35
2018-12-01T05:20:03.663Z,15.28
2018-12-01T05:25:58.653Z,13.46
2018-12-01T05:31:53.690Z,14.66
2018-12-01T05:37:48.715Z,15.23
2018-12-01T05:43:43.706Z,18.3
2018-12-01T05:49:38.676Z,16.86
2018-12-01T05:55:33.684Z,17.2
2018-12-01T06:01:28.766Z,17.33
2018-12-01T06:07:23.747Z,18.07
2018-12-01T06:13:18.711Z,15.67
2018-12-01T06:19:13.694Z,16.53
2018-12-01T06:25:08.695Z,15.58
2018-12-01T06:31:03.757Z,14.17
2018-12-01T06:36:58.790Z,13.64
2018-12-01T06:42:53.740Z,12.3
2018-12-01T06:48:48.731Z,12.16
2018-12-01T06:54:43.717Z,12.42
2018-12-01T07:00:38.714Z,11.94
2018-12-01T07:06:33.729Z,11.47
2018-12-01T07:12:28.723Z,10.48
2018-12-01T07:18:23.776Z,13.81
2018-12-01T07:24:18.737Z,16.83
2018-12-01T07:30:13.724Z,15.59
2018-12-01T07:36:08.744Z,20.61
2018-12-01T07:42:03.810Z,16.7
2018-12-01T07:47:58.762Z,17.36
2018-12-01T07:53:53.751Z,16.17
2018-12-01T07:59:48.781Z,19.77
2018-12-01T08:05:43.750Z,23.6
2018-12-01T08:11:38.751Z,22.94
2018-12-01T08:17:33.767Z,23.39
2018-12-01T08:23:28.798Z,22.55
2018-12-01T08:29:23.771Z,31.12
2018-12-01T08:35:18.796Z,26.04
2018-12-01T08:41:13.773Z,30.92
2018-12-01T08:47:08.812Z,31.84
2018-12-01T08:53:03.812Z,36.18
2018-12-01T08:58:58.855Z,31
2018-12-01T09:04:53.781Z,23.4
2018-12-01T09:10:48.809Z,21.91
2018-12-01T09:16:43.793Z,25.63
2018-12-01T09:22:38.792Z,26.47
2018-12-01T09:28:33.817Z,23.2
2018-12-01T09:34:28.825Z,19.98
2018-12-01T09:40:23.797Z,19.32
2018-12-01T09:46:18.841Z,18.13
2018-12-01T09:52:13.854Z,16.3
2018-12-01T09:58:08.822Z,14.8
2018-12-01T10:04:03.817Z,15.36
2018-12-01T10:09:58.839Z,15.53
2018-12-01T10:15:53.843Z,14.68
2018-12-01T10:21:48.834Z,16.3
2018-12-01T10:27:43.869Z,20.74
2018-12-01T10:33:38.858Z,21.65
2018-12-01T10:39:33.852Z,21.17
2018-12-01T10:45:28.901Z,18.28
2018-12-01T10:51:23.903Z,19.89
2018-12-01T10:57:18.864Z,17.46
2018-12-01T11:03:13.857Z,19.76
2018-12-01T11:09:08.885Z,16.82
2018-12-01T11:15:03.865Z,16.3
2018-12-01T11:20:58.897Z,16.25
2018-12-01T11:26:53.858Z,18.6
2018-12-01T11:32:48.889Z,16.96
2018-12-01T11:38:43.887Z,17.38
2018-12-01T11:44:38.882Z,21.68
2018-12-01T11:50:33.890Z,17.19
2018-12-01T11:56:28.870Z,15.26
2018-12-01T12:02:23.926Z,16.22
2018-12-01T12:08:18.963Z,20.83
2018-12-01T12:14:13.895Z,19.71
2018-12-01T12:20:08.906Z,15.89
2018-12-01T12:26:03.927Z,18.16
2018-12-01T12:31:58.899Z,20.37
2018-12-01T12:37:53.928Z,20.6
2018-12-01T12:43:48.913Z,20.81
2018-12-01T12:49:43.954Z,19.46
2018-12-01T12:55:38.918Z,20.05
2018-12-01T13:01:33.946Z,17.78
2018-12-01T13:07:28.944Z,17.15
2018-12-01T13:13:23.937Z,16.37
2018-12-01T13:19:18.925Z,18.27
2018-12-01T13:25:13.969Z,16.09
2018-12-01T13:31:08.985Z,15.34
2018-12-01T13:37:04.009Z,14.59
2018-12-01T13:42:58.944Z,15.77
2018-12-01T13:48:53.966Z,14.83
2018-12-01T13:54:48.994Z,14.18
2018-12-01T14:00:43.969Z,13.1
2018-12-01T14:06:38.962Z,13.92
2018-12-01T14:12:34.113Z,12.33
2018-12-01T14:18:28.985Z,13.37
2018-12-01T14:24:23.980Z,11.32
2018-12-01T14:30:19.022Z,12.4
2018-12-01T14:36:13.998Z,15.66
2018-12-01T14:42:09.019Z,18.09
2018-12-01T14:48:04.012Z,44.67
2018-12-01T14:53:59.018Z,29.9
2018-12-01T14:59:54.000Z,21.91
2018-12-01T15:05:49.046Z,15.84
2018-12-01T15:11:44.038Z,17.07
2018-12-01T15:17:39.019Z,12.17
2018-12-01T15:23:34.064Z,8.76
2018-12-01T15:29:29.011Z,7.92
2018-12-01T15:35:24.025Z,9.23
2018-12-01T15:41:19.035Z,8.64
2018-12-01T15:47:14.074Z,8.5
2018-12-01T15:53:09.067Z,6.02
2018-12-01T15:59:04.098Z,6.7
2018-12-01T16:04:59.082Z,8.36
2018-12-01T16:10:54.049Z,7.46
2018-12-01T16:16:49.067Z,7.33
2018-12-01T16:22:44.052Z,7.96
2018-12-01T16:28:39.073Z,9.12
2018-12-01T16:34:34.089Z,8.73
2018-12-01T16:40:29.103Z,8.45
2018-12-01T16:46:24.075Z,12.88
2018-12-01T16:52:19.056Z,10.05
2018-12-01T16:58:14.073Z,9.12
2018-12-01T17:04:09.094Z,9.2
2018-12-01T17:10:04.109Z,8.47
2018-12-01T17:15:59.123Z,9.53
2018-12-01T17:21:54.112Z,9.36
2018-12-01T17:27:49.138Z,9.31
2018-12-01T17:33:44.133Z,8.6
2018-12-01T17:39:39.114Z,8.8
2018-12-01T17:45:34.081Z,8.3
2018-12-01T17:51:29.091Z,8.81
2018-12-01T17:57:24.099Z,7.65
2018-12-01T18:03:19.111Z,8.87
2018-12-01T18:09:14.112Z,8.3
2018-12-01T18:15:09.155Z,9.08
2018-12-01T18:21:04.127Z,8.67
2018-12-01T18:26:59.125Z,10.56
2018-12-01T18:32:54.152Z,10.38
2018-12-01T18:38:49.125Z,9.04
2018-12-01T18:44:44.173Z,9.37
2018-12-01T18:50:39.142Z,8.42
2018-12-01T18:56:34.138Z,8.64
2018-12-01T19:02:29.151Z,11.63
2018-12-01T19:08:24.158Z,11.68
2018-12-01T19:14:19.149Z,11.36
2018-12-01T19:20:14.236Z,11.8
2018-12-01T19:26:09.147Z,12.99
2018-12-01T19:32:04.189Z,13.23
2018-12-01T19:37:59.164Z,13.13
2018-12-01T19:43:54.199Z,13.4
2018-12-01T19:49:49.168Z,14.22
2018-12-01T19:55:44.259Z,12.91
2018-12-01T20:01:39.180Z,12.12
2018-12-01T20:07:34.211Z,12.41
2018-12-01T20:13:29.175Z,13.04
2018-12-01T20:19:24.197Z,12.54
2018-12-01T20:25:19.243Z,12.36
2018-12-01T20:31:14.195Z,12.42
2018-12-01T20:37:09.265Z,13.32
2018-12-01T20:43:04.221Z,12.08
2018-12-01T20:48:59.179Z,10.47
2018-12-01T20:54:54.224Z,9.85
2018-12-01T21:00:49.250Z,8.34
2018-12-01T21:06:44.251Z,8.33
2018-12-01T21:12:39.222Z,8.38
2018-12-01T21:18:34.253Z,8.32
2018-12-01T21:24:29.257Z,8.04
2018-12-01T21:30:24.216Z,8.99
2018-12-01T21:36:19.253Z,11.32
2018-12-01T21:42:14.285Z,11.33
2018-12-01T21:48:09.231Z,12.15
2018-12-01T21:54:04.231Z,12.92
2018-12-01T21:59:59.223Z,14.23
2018-12-01T22:05:54.260Z,16.66
2018-12-01T22:11:49.234Z,16.01
2018-12-01T22:17:44.260Z,13.23
2018-12-01T22:23:39.250Z,15.31
2018-12-01T22:29:34.260Z,15.85
2018-12-01T22:35:29.248Z,16.85
2018-12-01T22:41:24.291Z,15.34
2018-12-01T22:47:19.298Z,15.07
2018-12-01T22:53:14.273Z,14.8
2018-12-01T22:59:09.275Z,19.18
2018-12-01T23:05:04.278Z,17.6
2018-12-01T23:10:59.281Z,17.84
2018-12-01T23:16:54.269Z,17.43
2018-12-01T23:22:49.298Z,16.74
2018-12-01T23:28:44.294Z,16.42
2018-12-01T23:34:39.284Z,16.57
2018-12-01T23:40:34.339Z,14.08
2018-12-01T23:46:29.300Z,13.43
2018-12-01T23:52:24.302Z,12.5
2018-12-01T23:58:19.320Z,11.93
